Time;durP1;ratioP1;P1;durP2;ratioP2;P2;SDS_P1;SDS_P2;PMS_P1;PMS_P2;Temp;Humidity;BMP_temperature;BMP_pressure;BME280_temperature;BME280_humidity;BME280_pressure;Samples;Min_cycle;Max_cycle;Signal;HPM_P1;HPM_P2
2021/10/14 00:01:01;;;;;;;4.93;3.53;;;;;;;4.72;100.00;101472.09;4998964;28;20610;-74
2021/10/14 00:03:28;;;;;;;5.13;4.10;;;;;;;4.76;100.00;101483.31;5005478;28;20225;-74
2021/10/14 00:05:54;;;;;;;5.60;3.83;;;;;;;4.80;100.00;101482.50;5004388;28;20239;-74
2021/10/14 00:08:20;;;;;;;7.07;4.30;;;;;;;4.84;100.00;101479.13;5002151;28;20209;-75
2021/10/14 00:10:47;;;;;;;5.33;4.00;;;;;;;4.86;100.00;101480.84;5007838;28;20922;-75
2021/10/14 00:13:13;;;;;;;5.57;3.57;;;;;;;4.87;100.00;101474.84;5005351;28;20224;-73
2021/10/14 00:15:39;;;;;;;6.60;4.73;;;;;;;4.87;100.00;101461.94;5007907;28;20728;-74
2021/10/14 00:18:07;;;;;;;8.57;3.90;;;;;;;4.89;100.00;101461.91;5004698;28;20210;-74
2021/10/14 00:20:34;;;;;;;7.80;4.10;;;;;;;4.92;100.00;101457.69;5007915;28;20201;-74
2021/10/14 00:23:00;;;;;;;6.47;4.03;;;;;;;4.95;100.00;101455.97;5006832;28;20302;-75
2021/10/14 00:25:27;;;;;;;4.40;3.70;;;;;;;4.95;100.00;101448.22;5008353;28;20213;-73
2021/10/14 00:27:53;;;;;;;8.10;4.37;;;;;;;4.91;100.00;101439.56;5007446;28;20205;-73
2021/10/14 00:30:20;;;;;;;5.73;4.03;;;;;;;4.88;100.00;101442.97;5004662;28;20289;-73
2021/10/14 00:32:47;;;;;;;6.87;4.20;;;;;;;4.91;100.00;101434.41;5008182;28;20211;-71
2021/10/14 00:35:14;;;;;;;7.13;4.67;;;;;;;4.90;100.00;101445.56;5005146;28;20197;-73
2021/10/14 00:37:41;;;;;;;6.77;4.40;;;;;;;4.84;100.00;101437.78;5010153;28;20228;-71
2021/10/14 00:40:08;;;;;;;5.53;4.23;;;;;;;4.84;100.00;101437.78;5003769;28;20239;-72
2021/10/14 00:42:35;;;;;;;5.53;4.30;;;;;;;4.83;100.00;101439.47;5010381;28;20203;-72
2021/10/14 00:45:03;;;;;;;7.17;4.07;;;;;;;4.82;100.00;101440.34;5002033;28;20225;-73
2021/10/14 00:47:30;;;;;;;6.57;4.83;;;;;;;4.84;100.00;101445.53;5006620;28;20222;-72
2021/10/14 00:49:58;;;;;;;6.10;4.23;;;;;;;4.83;100.00;101444.63;5003692;28;20234;-71
2021/10/14 00:52:26;;;;;;;5.33;4.40;;;;;;;4.87;100.00;101448.13;5009635;28;20209;-72
2021/10/14 00:54:55;;;;;;;6.80;4.40;;;;;;;4.88;100.00;101442.97;5003658;28;20249;-73
2021/10/14 00:57:22;;;;;;;6.80;4.43;;;;;;;4.90;100.00;101443.00;5006471;28;20201;-73
2021/10/14 00:59:48;;;;;;;5.50;4.43;;;;;;;4.93;100.00;101438.72;5003190;28;20208;-73
2021/10/14 01:02:14;;;;;;;5.77;4.67;;;;;;;4.98;100.00;101433.59;5005090;28;20204;-72
2021/10/14 01:04:41;;;;;;;6.60;4.90;;;;;;;4.98;100.00;101430.13;5002501;28;20231;-73
2021/10/14 01:07:08;;;;;;;5.53;4.40;;;;;;;4.99;100.00;101419.81;5007192;28;20590;-72
2021/10/14 01:09:35;;;;;;;6.77;4.80;;;;;;;5.01;100.00;101415.53;5004488;28;20210;-72
2021/10/14 01:12:04;;;;;;;5.77;4.37;;;;;;;5.04;100.00;101410.38;5005443;28;20209;-73
2021/10/14 01:14:30;;;;;;;7.80;4.63;;;;;;;5.05;100.00;101413.84;5003675;28;20227;-72
2021/10/14 01:16:57;;;;;;;5.63;4.30;;;;;;;5.07;100.00;101410.41;5003826;28;20205;-71
2021/10/14 01:19:24;;;;;;;6.27;4.23;;;;;;;5.10;100.00;101401.81;5009428;28;20196;-73
2021/10/14 01:21:52;;;;;;;6.67;5.23;;;;;;;5.12;100.00;101413.06;5003312;28;20212;-72
2021/10/14 01:24:19;;;;;;;6.50;4.90;;;;;;;5.16;100.00;101411.38;5007367;28;20225;-72
2021/10/14 01:26:46;;;;;;;7.70;4.77;;;;;;;5.16;100.00;101412.22;5004163;28;20231;-73
2021/10/14 01:29:12;;;;;;;6.67;5.13;;;;;;;5.21;100.00;101415.72;5009235;28;20197;-72
2021/10/14 01:31:39;;;;;;;5.67;4.50;;;;;;;5.23;100.00;101420.91;5004795;28;20227;-71
2021/10/14 01:34:07;;;;;;;8.27;5.30;;;;;;;5.27;100.00;101425.25;5012499;28;20220;-73
2021/10/14 01:36:34;;;;;;;6.90;5.00;;;;;;;5.29;100.00;101426.13;5004448;28;20284;-73
2021/10/14 01:39:03;;;;;;;8.60;5.30;;;;;;;5.28;100.00;101425.25;5004665;28;20249;-73
2021/10/14 01:41:29;;;;;;;8.67;4.97;;;;;;;5.30;100.00;101426.13;5001634;28;20209;-72
2021/10/14 01:43:55;;;;;;;7.23;5.00;;;;;;;5.31;100.00;101425.28;5004336;28;20220;-73
2021/10/14 01:46:22;;;;;;;7.27;5.17;;;;;;;5.34;100.00;101421.84;5002842;28;20224;-73
2021/10/14 01:48:48;;;;;;;8.87;5.90;;;;;;;5.33;100.00;101417.53;5013851;28;20212;-72
2021/10/14 01:51:14;;;;;;;8.93;5.80;;;;;;;5.36;100.00;101421.88;5001987;28;20212;-73
2021/10/14 01:53:41;;;;;;;10.90;5.10;;;;;;;5.35;100.00;101426.19;5006585;28;20225;-71
2021/10/14 01:56:09;;;;;;;9.17;5.87;;;;;;;5.35;100.00;101415.84;5000979;28;20197;-71
2021/10/14 01:58:35;;;;;;;9.10;5.57;;;;;;;5.37;100.00;101414.13;5002488;28;20216;-72
2021/10/14 02:01:02;;;;;;;7.23;5.20;;;;;;;5.37;100.00;101406.38;5004938;28;20191;-73
2021/10/14 02:03:28;;;;;;;7.20;5.50;;;;;;;5.38;100.00;101405.53;5009246;28;20221;-73
2021/10/14 02:05:54;;;;;;;9.67;5.73;;;;;;;5.39;100.00;101414.13;5004066;28;20267;-73
2021/10/14 02:08:21;;;;;;;7.47;6.30;;;;;;;5.40;100.00;101408.97;5006758;28;20676;-74
2021/10/14 02:10:47;;;;;;;9.63;6.20;;;;;;;5.38;100.00;101400.34;5005579;28;20381;-74
2021/10/14 02:13:15;;;;;;;8.40;6.07;;;;;;;5.38;100.00;101399.47;5004190;28;20777;-72
2021/10/14 02:15:41;;;;;;;10.80;6.03;;;;;;;5.37;100.00;101400.34;5004082;28;20318;-73
2021/10/14 02:18:08;;;;;;;7.40;6.17;;;;;;;5.39;100.00;101393.44;5002031;28;20714;-71
2021/10/14 02:20:34;;;;;;;10.73;6.63;;;;;;;5.38;100.00;101390.00;5010915;28;20200;-72
2021/10/14 02:23:00;;;;;;;7.40;6.07;;;;;;;5.40;100.00;101390.88;5007392;28;20230;-72
2021/10/14 02:25:27;;;;;;;10.70;6.03;;;;;;;5.41;100.00;101391.72;5010709;28;20199;-73
2021/10/14 02:27:53;;;;;;;9.13;5.90;;;;;;;5.40;100.00;101398.63;5018834;28;20324;-73
2021/10/14 02:30:21;;;;;;;10.57;6.40;;;;;;;5.41;100.00;101395.19;5012781;28;20214;-73
2021/10/14 02:32:48;;;;;;;8.53;6.33;;;;;;;5.44;100.00;101390.03;5005813;28;20208;-73
2021/10/14 02:35:14;;;;;;;8.27;5.70;;;;;;;5.45;100.00;101391.78;5010296;28;20199;-72
2021/10/14 02:37:41;;;;;;;8.60;6.40;;;;;;;5.49;100.00;101392.66;5009896;28;20759;-72
2021/10/14 02:40:09;;;;;;;7.73;6.00;;;;;;;5.49;100.00;101395.25;5007925;28;20204;-71
2021/10/14 02:42:35;;;;;;;8.53;5.83;;;;;;;5.49;100.00;101384.91;5005515;28;20208;-73
2021/10/14 02:45:02;;;;;;;8.90;5.60;;;;;;;5.52;100.00;101384.03;5007211;28;21591;-73
2021/10/14 02:47:30;;;;;;;10.30;6.30;;;;;;;5.51;100.00;101385.78;5002145;28;20223;-73
2021/10/14 02:49:56;;;;;;;8.97;6.20;;;;;;;5.52;100.00;101381.47;5011047;28;20204;-74
2021/10/14 02:52:22;;;;;;;9.27;5.60;;;;;;;5.54;100.00;101382.34;5005952;28;20211;-73
2021/10/14 02:54:49;;;;;;;8.23;5.77;;;;;;;5.52;100.00;101387.50;5012801;28;20853;-74
2021/10/14 02:57:15;;;;;;;12.23;6.37;;;;;;;5.54;100.00;101390.09;5003422;28;20215;-72
2021/10/14 02:59:41;;;;;;;7.30;5.87;;;;;;;5.55;100.00;101402.19;5014719;28;20690;-74
2021/10/14 03:02:08;;;;;;;9.40;6.20;;;;;;;5.57;100.00;101390.13;5003599;28;20219;-74
2021/10/14 03:04:35;;;;;;;8.37;6.07;;;;;;;5.60;100.00;101392.72;5014453;28;20228;-72
2021/10/14 03:07:02;;;;;;;9.27;6.40;;;;;;;5.63;100.00;101382.41;5007132;28;20212;-73
2021/10/14 03:09:28;;;;;;;10.27;6.67;;;;;;;5.65;100.00;101371.19;5012216;28;20814;-73
2021/10/14 03:11:55;;;;;;;9.43;6.37;;;;;;;5.67;100.00;101372.06;5007473;28;20204;-72
2021/10/14 03:14:21;;;;;;;9.97;6.33;;;;;;;5.72;100.00;101386.75;5013857;28;20220;-73
2021/10/14 03:16:47;;;;;;;10.47;6.57;;;;;;;5.73;100.00;101379.00;5008401;28;20201;-74
2021/10/14 03:19:14;;;;;;;9.57;6.27;;;;;;;5.75;100.00;101377.31;5006134;28;20748;-74
2021/10/14 03:21:42;;;;;;;9.73;6.30;;;;;;;5.79;100.00;101383.38;5008492;28;20209;-73
2021/10/14 03:24:08;;;;;;;10.03;6.57;;;;;;;5.81;100.00;101377.34;5005776;28;20724;-73
2021/10/14 03:26:34;;;;;;;9.93;6.17;;;;;;;5.85;100.00;101381.66;5007559;28;20740;-74
2021/10/14 03:29:01;;;;;;;9.57;6.83;;;;;;;5.87;100.00;101385.16;5008217;28;20208;-74
2021/10/14 03:31:27;;;;;;;10.07;6.43;;;;;;;5.92;100.00;101392.91;5007777;28;20201;-73
2021/10/14 03:33:56;;;;;;;10.70;7.10;;;;;;;5.95;100.00;101390.34;5003556;28;20315;-74
2021/10/14 03:36:22;;;;;;;13.20;7.90;;;;;;;5.99;100.00;101391.25;5009112;28;20247;-73
2021/10/14 03:38:50;;;;;;;9.93;7.03;;;;;;;6.01;100.00;101390.41;5005197;28;20201;-72
2021/10/14 03:41:16;;;;;;;10.50;6.63;;;;;;;6.02;100.00;101389.56;5017221;28;20200;-74
2021/10/14 03:43:43;;;;;;;13.63;6.57;;;;;;;6.04;100.00;101394.75;5028112;22;20227;-73
2021/10/14 03:46:09;;;;;;;7.17;5.93;;;;;;;6.05;100.00;101391.28;5050100;28;20203;-73
2021/10/14 03:48:36;;;;;;;10.73;6.30;;;;;;;6.05;100.00;101394.75;5049367;28;20219;-73
2021/10/14 03:51:16;;;;;;;10.90;6.47;;;;;;;6.07;100.00;101394.75;5054943;28;20262;-73
2021/10/14 03:53:43;;;;;;;14.10;6.73;;;;;;;6.07;100.00;101400.81;5048923;28;20222;-73
2021/10/14 03:56:10;;;;;;;10.10;6.50;;;;;;;6.09;100.00;101390.44;5049606;28;20210;-73
2021/10/14 03:58:37;;;;;;;11.93;6.90;;;;;;;6.09;100.00;101390.44;5045388;28;20196;-73
2021/10/14 04:01:03;;;;;;;12.37;6.33;;;;;;;6.10;100.00;101394.75;5048983;28;20221;-73
2021/10/14 04:03:30;;;;;;;10.23;6.90;;;;;;;6.11;100.00;101398.22;5051071;28;20693;-73
2021/10/14 04:05:56;;;;;;;10.03;7.07;;;;;;;6.14;100.00;101395.63;5049127;28;20203;-73
2021/10/14 04:08:22;;;;;;;14.93;7.33;;;;;;;6.13;100.00;101394.78;5048011;28;20227;-73
2021/10/14 04:10:49;;;;;;;10.10;7.13;;;;;;;6.14;100.00;101393.03;5048224;28;20782;-73
2021/10/14 04:13:17;;;;;;;13.03;7.40;;;;;;;6.15;100.00;101390.47;5052445;28;20203;-73
2021/10/14 04:15:43;;;;;;;11.43;7.33;;;;;;;6.18;100.00;101395.66;5051763;28;20199;-73
2021/10/14 04:18:10;;;;;;;11.93;8.07;;;;;;;6.19;100.00;101391.34;5047111;28;20668;-73
2021/10/14 04:20:37;;;;;;;12.93;8.60;;;;;;;6.21;100.00;101387.06;5047180;28;20227;-73
2021/10/14 04:23:03;;;;;;;11.63;8.53;;;;;;;6.22;100.00;101389.63;5052140;28;20213;-74
2021/10/14 04:25:29;;;;;;;12.70;8.53;;;;;;;6.25;100.00;101391.38;5048298;28;20211;-73
2021/10/14 04:27:56;;;;;;;10.93;7.87;;;;;;;6.25;100.00;101381.03;5046173;28;20220;-73
2021/10/14 04:30:24;;;;;;;10.93;7.73;;;;;;;6.26;100.00;101385.31;5050055;28;20853;-73
2021/10/14 04:32:50;;;;;;;12.70;8.00;;;;;;;6.28;100.00;101374.97;5045942;28;20642;-73
2021/10/14 04:35:17;;;;;;;9.93;8.00;;;;;;;6.28;100.00;101380.16;5049077;28;20211;-73
2021/10/14 04:38:37;;;;;;;14.83;8.53;;;;;;;6.29;100.00;101379.31;5051535;28;20196;-73
2021/10/14 04:48:18;;;;;;;8.20;6.53;;;;;;;6.31;100.00;101364.63;4989728;28;20232;-74
2021/10/14 04:50:44;;;;;;;11.87;6.33;;;;;;;6.31;100.00;101365.50;5027425;28;20204;-74
2021/10/14 04:53:11;;;;;;;8.77;6.60;;;;;;;6.33;100.00;101366.38;5031816;28;20610;-74
2021/10/14 04:55:38;;;;;;;12.97;7.30;;;;;;;6.33;100.00;101362.91;5030909;28;20227;-74
2021/10/14 04:58:04;;;;;;;9.63;6.30;;;;;;;6.33;100.00;101357.72;5032237;28;20207;-75
2021/10/14 05:00:31;;;;;;;10.53;6.43;;;;;;;6.34;100.00;101356.88;5028392;28;20602;-74
2021/10/14 05:02:57;;;;;;;9.90;6.17;;;;;;;6.34;100.00;101360.31;5029165;28;20215;-75
2021/10/14 05:05:25;;;;;;;7.87;5.60;;;;;;;6.36;100.00;101347.38;5030064;28;20232;-74
2021/10/14 05:07:52;;;;;;;11.33;5.67;;;;;;;6.38;100.00;101349.09;5029323;28;20691;-75
2021/10/14 05:10:18;;;;;;;8.17;5.20;;;;;;;6.39;100.00;101350.00;5028990;28;20204;-74
2021/10/14 05:12:44;;;;;;;6.50;4.93;;;;;;;6.39;100.00;101339.63;5027569;28;20295;-74
2021/10/14 05:15:11;;;;;;;9.63;5.03;;;;;;;6.40;100.00;101343.94;5028743;28;20220;-75
2021/10/14 05:17:38;;;;;;;7.63;4.77;;;;;;;6.42;100.00;101347.38;5029396;28;20823;-74
2021/10/14 05:20:06;;;;;;;6.23;4.80;;;;;;;6.42;100.00;101343.09;5024567;28;20207;-73
2021/10/14 05:22:34;;;;;;;6.80;4.43;;;;;;;6.46;100.00;101343.09;5026460;28;20199;-74
2021/10/14 05:25:01;;;;;;;6.87;4.50;;;;;;;6.48;100.00;101349.16;5029796;28;20219;-75
2021/10/14 05:27:27;;;;;;;6.97;4.67;;;;;;;6.49;100.00;101343.09;5027262;28;20307;-75
2021/10/14 05:29:53;;;;;;;6.53;4.30;;;;;;;6.50;100.00;101345.69;5031141;28;20206;-75
2021/10/14 05:32:20;;;;;;;8.20;4.93;;;;;;;6.52;100.00;101345.69;5027517;28;20207;-75
2021/10/14 05:34:46;;;;;;;8.67;5.97;;;;;;;6.52;100.00;101345.69;5034546;28;20462;-75
2021/10/14 05:37:13;;;;;;;8.93;6.23;;;;;;;6.51;100.00;101342.25;5026814;28;20211;-74
2021/10/14 05:39:40;;;;;;;10.73;5.80;;;;;;;6.52;100.00;101343.97;5027801;28;20218;-74
2021/10/14 05:42:07;;;;;;;10.80;5.80;;;;;;;6.53;100.00;101343.13;5024762;28;20199;-75
2021/10/14 05:44:33;;;;;;;9.97;6.17;;;;;;;6.54;100.00;101342.22;5031719;28;20227;-75
2021/10/14 05:47:00;;;;;;;11.53;7.20;;;;;;;6.56;100.00;101335.34;5027426;28;20203;-74
2021/10/14 05:49:26;;;;;;;11.93;6.33;;;;;;;6.57;100.00;101344.84;5025848;28;20211;-75
2021/10/14 05:51:52;;;;;;;10.77;7.53;;;;;;;6.58;100.00;101343.13;5028939;28;20200;-75
2021/10/14 05:54:19;;;;;;;32.43;16.50;;;;;;;6.60;100.00;101336.22;5031760;28;20200;-75
2021/10/14 05:56:46;;;;;;;12.93;8.27;;;;;;;6.60;100.00;101339.66;5027570;28;20659;-74
2021/10/14 05:59:13;;;;;;;21.30;11.47;;;;;;;6.62;100.00;101340.53;5025201;28;20219;-75
2021/10/14 06:01:39;;;;;;;10.67;7.03;;;;;;;6.64;100.00;101348.31;5032954;28;20207;-75
2021/10/14 06:04:06;;;;;;;15.77;9.00;;;;;;;6.62;100.00;101343.13;5024223;28;20692;-74
2021/10/14 06:06:32;;;;;;;11.57;7.33;;;;;;;6.63;100.00;101334.50;5032239;28;20222;-74
2021/10/14 06:08:59;;;;;;;15.93;9.50;;;;;;;6.66;100.00;101337.94;5026282;28;20220;-74
2021/10/14 06:11:25;;;;;;;10.70;6.47;;;;;;;6.67;100.00;101335.38;5024230;28;20212;-74
2021/10/14 06:13:53;;;;;;;10.07;6.27;;;;;;;6.68;100.00;101333.63;5026111;28;20571;-75
2021/10/14 06:16:19;;;;;;;11.10;7.37;;;;;;;6.68;100.00;101342.25;5024588;28;20227;-73
2021/10/14 06:18:46;;;;;;;9.70;6.90;;;;;;;6.70;100.00;101340.56;5026070;28;20208;-74
2021/10/14 06:21:12;;;;;;;12.07;8.20;;;;;;;6.71;100.00;101344.88;5032889;28;20297;-74
2021/10/14 06:23:39;;;;;;;13.03;9.13;;;;;;;6.74;100.00;101336.25;5028342;28;20200;-74
2021/10/14 06:26:06;;;;;;;8.97;7.00;;;;;;;6.75;100.00;101341.41;5028818;28;20239;-75
2021/10/14 06:28:32;;;;;;;8.90;7.37;;;;;;;6.79;100.00;101339.72;5026909;28;20220;-75
2021/10/14 06:31:00;;;;;;;7.60;6.53;;;;;;;6.81;100.00;101340.56;5027326;28;20662;-75
2021/10/14 06:33:26;;;;;;;9.23;6.93;;;;;;;6.81;100.00;101341.41;5025488;28;20212;-75
2021/10/14 06:35:53;;;;;;;10.13;7.80;;;;;;;6.84;100.00;101340.53;5025694;28;20766;-74
2021/10/14 06:38:20;;;;;;;9.40;6.63;;;;;;;6.85;100.00;101334.50;5026783;28;20212;-75
2021/10/14 06:40:46;;;;;;;7.93;6.60;;;;;;;6.87;100.00;101337.97;5031623;28;20200;-74
2021/10/14 06:43:13;;;;;;;9.73;6.50;;;;;;;6.89;100.00;101333.63;5025362;28;20204;-74
2021/10/14 06:45:39;;;;;;;8.17;6.37;;;;;;;6.90;100.00;101332.78;5021965;28;20235;-73
2021/10/14 06:48:08;;;;;;;9.37;6.23;;;;;;;6.92;100.00;101327.59;5027528;28;20224;-75
2021/10/14 06:50:34;;;;;;;8.33;6.23;;;;;;;6.95;100.00;101322.44;5034172;28;20671;-74
2021/10/14 06:53:03;;;;;;;8.43;6.57;;;;;;;6.96;100.00;101321.53;5028385;28;20203;-74
2021/10/14 06:55:29;;;;;;;9.27;6.93;;;;;;;7.00;100.00;101323.25;5030639;28;20227;-75
2021/10/14 06:57:56;;;;;;;8.83;6.97;;;;;;;7.01;100.00;101319.81;5024810;28;20202;-75
2021/10/14 07:00:23;;;;;;;10.63;7.33;;;;;;;7.04;100.00;101322.41;5023652;28;20208;-74
2021/10/14 07:02:49;;;;;;;10.07;7.27;;;;;;;7.08;100.00;101324.13;5026537;28;20196;-73
2021/10/14 07:05:17;;;;;;;9.17;7.37;;;;;;;7.10;100.00;101327.59;5022589;28;20770;-75
2021/10/14 07:07:43;;;;;;;8.43;6.60;;;;;;;7.13;100.00;101325.00;5030860;28;20695;-75
2021/10/14 07:10:11;;;;;;;10.90;8.60;;;;;;;7.15;100.00;101320.66;5025183;28;20215;-74
2021/10/14 07:12:39;;;;;;;9.77;7.17;;;;;;;7.18;100.00;101330.19;5036988;28;20674;-75
2021/10/14 07:15:06;;;;;;;8.47;6.70;;;;;;;7.19;100.00;101322.41;5041795;28;20891;-74
2021/10/14 07:17:32;;;;;;;8.60;6.87;;;;;;;7.22;100.00;101318.94;5044011;28;20214;-74
2021/10/14 07:19:59;;;;;;;9.37;6.97;;;;;;;7.23;100.00;101318.09;5027275;28;20211;-75
2021/10/14 07:22:27;;;;;;;8.87;7.07;;;;;;;7.25;100.00;101318.94;5032434;28;20218;-74
2021/10/14 07:24:54;;;;;;;7.43;6.40;;;;;;;7.28;100.00;101313.75;5028301;28;20650;-75
2021/10/14 07:27:20;;;;;;;8.40;6.23;;;;;;;7.31;100.00;101312.88;5032840;28;20573;-74
2021/10/14 07:29:47;;;;;;;7.97;6.30;;;;;;;7.36;100.00;101319.78;5029119;28;20202;-75
2021/10/14 07:32:13;;;;;;;9.23;6.57;;;;;;;7.39;100.00;101321.53;5050828;28;20739;-74
2021/10/14 07:34:40;;;;;;;7.53;5.90;;;;;;;7.43;100.00;101322.38;5030496;28;20250;-74
2021/10/14 07:37:07;;;;;;;7.70;6.30;;;;;;;7.44;100.00;101318.91;5028712;28;20196;-75
2021/10/14 07:39:35;;;;;;;9.50;6.50;;;;;;;7.47;100.00;101321.50;5029171;28;20188;-74
2021/10/14 07:42:02;;;;;;;8.90;5.97;;;;;;;7.50;100.00;101317.16;5028287;28;20213;-75
2021/10/14 07:44:28;;;;;;;8.47;5.87;;;;;;;7.53;100.00;101313.72;5027638;28;20947;-75
2021/10/14 07:46:55;;;;;;;8.70;5.50;;;;;;;7.55;100.00;101309.38;5026427;28;20380;-74
2021/10/14 07:49:21;;;;;;;6.87;5.97;;;;;;;7.56;100.00;101311.09;5029923;28;20228;-75
2021/10/14 07:51:48;;;;;;;6.07;5.20;;;;;;;7.59;100.00;101308.47;5028484;28;20200;-74
2021/10/14 07:54:14;;;;;;;7.13;5.03;;;;;;;7.62;100.00;101307.63;5027362;28;20207;-75
2021/10/14 07:56:42;;;;;;;6.53;5.67;;;;;;;7.65;100.00;101310.19;5029892;28;20208;-75
2021/10/14 07:59:08;;;;;;;6.57;5.57;;;;;;;7.73;100.00;101311.03;5034441;28;20196;-75
2021/10/14 08:01:35;;;;;;;7.63;5.23;;;;;;;7.76;100.00;101306.69;5032894;28;20213;-74
2021/10/14 08:04:03;;;;;;;9.23;5.73;;;;;;;7.81;100.00;101314.47;5029103;28;20197;-75
2021/10/14 08:06:29;;;;;;;8.03;5.90;;;;;;;7.88;100.00;101317.91;5027974;28;20219;-73
2021/10/14 08:08:56;;;;;;;5.87;5.03;;;;;;;7.88;100.00;101313.59;5029826;28;20676;-75
2021/10/14 08:11:22;;;;;;;5.80;5.00;;;;;;;7.91;100.00;101316.16;5027323;28;20216;-75
2021/10/14 08:13:50;;;;;;;8.20;4.83;;;;;;;7.93;100.00;101317.03;5030360;28;20707;-74
2021/10/14 08:16:16;;;;;;;7.97;4.70;;;;;;;7.97;100.00;101321.34;5025308;28;20264;-75
2021/10/14 08:18:43;;;;;;;6.97;5.10;;;;;;;7.97;100.00;101320.47;5022311;28;20226;-74
2021/10/14 08:21:09;;;;;;;5.50;4.73;;;;;;;7.99;100.00;101321.34;5025708;28;20696;-73
2021/10/14 08:23:36;;;;;;;6.60;4.73;;;;;;;8.00;100.00;101327.38;5028730;28;20208;-74
2021/10/14 08:26:02;;;;;;;8.07;5.07;;;;;;;7.96;100.00;101322.19;5026917;28;20224;-75
2021/10/14 08:28:29;;;;;;;5.60;4.87;;;;;;;7.97;100.00;101316.13;5037011;28;20229;-74
2021/10/14 08:30:57;;;;;;;6.67;5.20;;;;;;;8.03;100.00;101317.84;5027026;28;20304;-74
2021/10/14 08:33:23;;;;;;;5.67;5.03;;;;;;;8.05;100.00;101317.84;5036012;28;20201;-75
2021/10/14 08:35:49;;;;;;;7.93;5.40;;;;;;;8.05;100.00;101315.25;5028211;28;20849;-73
2021/10/14 08:38:16;;;;;;;5.67;5.03;;;;;;;8.09;100.00;101316.94;5044992;28;20221;-74
2021/10/14 08:40:42;;;;;;;6.33;5.43;;;;;;;8.17;100.00;101312.59;5027444;28;20199;-75
2021/10/14 08:43:13;;;;;;;6.17;5.40;;;;;;;8.26;100.00;101309.06;5026799;28;20196;-74
2021/10/14 08:45:41;;;;;;;7.90;5.47;;;;;;;8.37;100.00;101302.06;5028972;28;20231;-74
2021/10/14 08:48:10;;;;;;;6.83;5.67;;;;;;;8.41;100.00;101305.50;5028765;28;20275;-75
2021/10/14 08:50:39;;;;;;;6.97;5.80;;;;;;;8.42;100.00;101307.25;5025345;28;20214;-74
2021/10/14 08:53:06;;;;;;;9.00;6.23;;;;;;;8.44;100.00;101303.81;5026360;28;20222;-75
2021/10/14 08:55:35;;;;;;;6.93;5.83;;;;;;;8.51;100.00;101305.50;5029048;28;20241;-74
2021/10/14 08:58:01;;;;;;;8.07;6.57;;;;;;;8.54;100.00;101304.59;5026915;28;20552;-74
2021/10/14 09:00:27;;;;;;;7.10;6.40;;;;;;;8.65;100.00;101296.72;5026635;28;20206;-74
2021/10/14 09:02:54;;;;;;;10.73;7.40;;;;;;;8.71;100.00;101292.34;5027479;28;20531;-74
2021/10/14 09:05:22;;;;;;;7.27;6.50;;;;;;;8.80;100.00;101300.94;5029194;28;20230;-75
2021/10/14 09:07:50;;;;;;;7.67;6.67;;;;;;;8.85;100.00;101296.59;5039904;28;20207;-74
2021/10/14 09:10:17;;;;;;;7.23;6.40;;;;;;;8.90;100.00;101305.22;5027830;28;20227;-74
2021/10/14 09:12:46;;;;;;;8.00;7.20;;;;;;;8.97;100.00;101296.47;5028084;28;20234;-75
2021/10/14 09:15:14;;;;;;;8.27;7.00;;;;;;;9.04;100.00;101297.25;5033959;28;20221;-74
2021/10/14 09:17:46;;;;;;;7.80;6.37;;;;;;;9.01;100.00;101292.09;5027283;28;20694;-75
2021/10/14 09:20:30;;;;;;;7.40;6.60;;;;;;;9.12;100.00;101292.00;5038050;28;20663;-74
2021/10/14 09:22:58;;;;;;;8.07;6.80;;;;;;;9.19;100.00;101291.06;5025617;28;20203;-75
2021/10/14 09:25:34;;;;;;;7.87;6.43;;;;;;;9.29;100.00;101283.16;5025542;28;20314;-75
2021/10/14 09:28:17;;;;;;;8.43;6.60;;;;;;;9.33;100.00;101288.31;5025545;28;20199;-72
2021/10/14 09:30:53;;;;;;;7.87;6.50;;;;;;;9.37;100.00;101284.81;5029887;28;20265;-75
2021/10/14 09:33:32;;;;;;;8.00;6.27;;;;;;;9.34;100.00;101284.81;5030300;28;20228;-75
2021/10/14 09:36:11;;;;;;;6.97;5.77;;;;;;;9.36;100.00;101293.50;5027428;28;20736;-75
2021/10/14 09:38:38;;;;;;;5.97;5.37;;;;;;;9.32;100.00;101291.78;5029510;28;20291;-75
2021/10/14 09:41:06;;;;;;;6.73;6.03;;;;;;;9.43;100.00;101293.41;5025233;28;20210;-75
2021/10/14 09:43:33;;;;;;;6.53;5.83;;;;;;;9.41;100.00;101294.28;5028973;28;20575;-75
2021/10/14 09:46:00;;;;;;;7.13;5.20;;;;;;;9.36;100.00;101291.75;5025313;28;20303;-75
2021/10/14 09:48:26;;;;;;;5.93;5.33;;;;;;;9.40;100.00;101295.19;5033726;28;20224;-75
2021/10/14 09:50:54;;;;;;;7.70;5.20;;;;;;;9.46;100.00;101288.19;5039679;28;20660;-75
2021/10/14 09:53:24;;;;;;;5.80;5.30;;;;;;;9.55;100.00;101297.63;5028177;28;20212;-75
2021/10/14 09:55:52;;;;;;;5.67;5.13;;;;;;;9.61;100.00;101291.50;5023763;28;20311;-74
2021/10/14 09:58:22;;;;;;;6.37;5.63;;;;;;;9.58;100.00;101294.13;5020676;28;20200;-75
2021/10/14 10:00:49;;;;;;;7.43;5.63;;;;;;;9.57;100.00;101295.00;5025280;28;20207;-75
2021/10/14 10:03:17;;;;;;;5.77;5.17;;;;;;;9.58;100.00;101294.97;5024383;28;20327;-75
2021/10/14 10:05:47;;;;;;;6.50;5.80;;;;;;;9.68;100.00;101300.94;5024685;28;20984;-75
2021/10/14 10:08:20;;;;;;;5.83;5.23;;;;;;;9.64;100.00;101294.91;5022579;28;20199;-73
2021/10/14 10:10:49;;;;;;;5.07;4.57;;;;;;;9.58;100.00;101309.75;5028643;28;20199;-75
2021/10/14 10:13:17;;;;;;;5.43;4.93;;;;;;;9.57;100.00;101303.69;5021427;28;20262;-75
2021/10/14 10:15:46;;;;;;;5.77;5.20;;;;;;;9.62;100.00;101306.22;5032736;28;20305;-75
2021/10/14 10:18:44;;;;;;;7.73;5.60;;;;;;;9.62;100.00;101307.09;5024029;28;20208;-75
2021/10/14 10:21:38;;;;;;;7.43;5.57;;;;;;;9.53;100.00;101304.56;5029127;28;20208;-75
2021/10/14 10:24:06;;;;;;;6.37;5.53;;;;;;;9.53;100.00;101298.50;5024590;28;21330;-74
2021/10/14 10:26:51;;;;;;;5.67;4.90;;;;;;;9.54;100.00;101301.09;5032697;28;20285;-75
2021/10/14 10:29:36;;;;;;;6.77;5.30;;;;;;;9.54;100.00;101300.25;5026617;28;20311;-75
2021/10/14 10:32:17;;;;;;;6.47;5.43;;;;;;;9.58;100.00;101294.97;5028694;28;20587;-74
2021/10/14 10:37:48;;;;;;;6.03;5.20;;;;;;;9.57;100.00;101300.19;5017037;28;20211;-73
2021/10/14 10:40:23;;;;;;;6.23;5.37;;;;;;;9.58;100.00;101302.78;5022954;28;20266;-73
2021/10/14 10:42:56;;;;;;;6.13;5.10;;;;;;;9.61;100.00;101294.09;5020053;28;20231;-74
2021/10/14 10:45:24;;;;;;;6.37;5.53;;;;;;;9.68;100.00;101294.88;5022496;28;20242;-74
2021/10/14 10:48:01;;;;;;;7.80;5.67;;;;;;;9.74;100.00;101287.00;5024314;28;20706;-74
2021/10/14 10:50:45;;;;;;;7.07;5.83;;;;;;;9.76;100.00;101280.00;5028065;28;20219;-74
2021/10/14 10:53:13;;;;;;;8.40;5.57;;;;;;;9.75;100.00;101279.16;5035635;28;20718;-74
2021/10/14 10:55:43;;;;;;;6.93;5.83;;;;;;;9.81;100.00;101283.44;5031348;28;20228;-74
2021/10/14 10:58:13;;;;;;;7.60;6.00;;;;;;;9.83;100.00;101284.25;5028589;28;20575;-74
2021/10/14 11:00:41;;;;;;;8.13;5.63;;;;;;;9.94;100.00;101273.75;5029286;28;20211;-74
2021/10/14 11:03:10;;;;;;;7.33;6.13;;;;;;;9.94;100.00;101281.56;5039306;28;20200;-73
2021/10/14 11:05:44;;;;;;;6.63;5.93;;;;;;;10.02;100.00;101275.31;5027318;28;20687;-73
2021/10/14 11:08:13;;;;;;;8.03;5.70;;;;;;;10.02;100.00;101280.53;5036901;28;20205;-73
2021/10/14 11:10:39;;;;;;;7.43;5.77;;;;;;;10.03;100.00;101273.59;5028054;28;20221;-74
2021/10/14 11:13:06;;;;;;;7.37;6.00;;;;;;;10.05;100.00;101270.09;5029902;28;20695;-74
2021/10/14 11:15:34;;;;;;;6.83;5.97;;;;;;;10.06;100.00;101273.56;5028572;28;20593;-73
2021/10/14 11:18:03;;;;;;;7.23;6.33;;;;;;;10.11;100.00;101274.34;5036844;28;20193;-73
2021/10/14 11:20:29;;;;;;;8.43;6.30;;;;;;;10.15;100.00;101272.56;5027199;28;20210;-73
2021/10/14 11:23:02;;;;;;;6.60;5.87;;;;;;;10.20;100.00;101268.13;5031105;28;20208;-74
2021/10/14 11:25:28;;;;;;;7.70;6.47;;;;;;;10.17;100.00;101274.28;5030710;28;20234;-74
2021/10/14 11:28:03;;;;;;;7.27;6.57;;;;;;;10.17;100.00;101266.44;5032269;28;20215;-73
2021/10/14 11:30:39;;;;;;;7.83;6.70;;;;;;;10.15;100.00;101262.13;5026234;28;20740;-74
2021/10/14 11:33:12;;;;;;;9.27;6.77;;;;;;;10.15;100.00;101263.00;5025781;28;20216;-74
2021/10/14 11:35:39;;;;;;;7.73;6.80;;;;;;;10.15;100.00;101255.19;5027756;28;20244;-74